createdAt,value
2019-05-07T00:01:06.731Z,11.70
2019-05-07T00:03:36.802Z,11.50
2019-05-07T00:06:06.861Z,11.50
2019-05-07T00:08:36.899Z,11.40
2019-05-07T00:11:07.007Z,11.40
2019-05-07T00:13:37.191Z,11.40
2019-05-07T00:16:08.230Z,11.50
2019-05-07T00:18:38.199Z,11.40
2019-05-07T00:21:08.279Z,11.50
2019-05-07T00:23:39.227Z,11.50
2019-05-07T00:26:09.242Z,11.50
2019-05-07T00:28:39.210Z,11.50
2019-05-07T00:31:09.223Z,11.50
2019-05-07T00:33:39.571Z,11.50
2019-05-07T00:36:16.963Z,11.60
2019-05-07T00:38:54.811Z,11.60
2019-05-07T00:41:31.977Z,11.60
2019-05-07T00:44:03.205Z,11.60
2019-05-07T00:46:34.475Z,11.50
2019-05-07T00:49:04.487Z,11.40
2019-05-07T00:51:37.615Z,11.30
2019-05-07T00:54:08.543Z,11.30
2019-05-07T00:56:38.551Z,11.20
2019-05-07T00:59:08.659Z,11.10
2019-05-07T01:01:38.735Z,11.10
2019-05-07T01:04:08.731Z,11.10
2019-05-07T01:06:38.814Z,11.20
2019-05-07T01:09:08.932Z,11.20
2019-05-07T01:11:38.882Z,11.30
2019-05-07T01:14:09.076Z,11.30
2019-05-07T01:16:39.283Z,11.10
2019-05-07T01:19:09.282Z,11.00
2019-05-07T01:21:39.258Z,11.10
2019-05-07T01:24:09.202Z,11.10
2019-05-07T01:26:39.261Z,11.10
2019-05-07T01:29:09.203Z,11.00
2019-05-07T01:31:42.989Z,10.90
2019-05-07T01:34:17.954Z,10.90
2019-05-07T01:36:48.145Z,10.90
2019-05-07T01:39:18.084Z,11.00
2019-05-07T01:41:48.123Z,11.00
2019-05-07T01:44:18.097Z,10.90
2019-05-07T01:46:48.099Z,10.90
2019-05-07T01:49:20.707Z,10.80
2019-05-07T01:51:58.370Z,10.90
2019-05-07T01:54:28.358Z,11.00
2019-05-07T01:56:58.351Z,11.10
2019-05-07T01:59:28.402Z,11.10
2019-05-07T02:02:00.079Z,11.10
2019-05-07T02:04:32.698Z,11.20
2019-05-07T02:07:16.049Z,11.10
2019-05-07T02:09:51.885Z,11.10
2019-05-07T02:12:23.563Z,11.10
2019-05-07T02:14:53.576Z,11.10
2019-05-07T02:17:23.619Z,11.10
2019-05-07T02:19:53.671Z,11.10
2019-05-07T02:22:23.779Z,11.00
2019-05-07T02:24:54.587Z,11.00
2019-05-07T02:27:24.709Z,11.00
2019-05-07T02:29:54.708Z,11.00
2019-05-07T02:32:24.820Z,11.10
2019-05-07T02:34:54.839Z,11.00
2019-05-07T02:37:33.051Z,11.00
2019-05-07T02:39:59.788Z,11.10
2019-05-07T02:42:33.355Z,11.10
2019-05-07T02:45:17.916Z,11.20
2019-05-07T02:47:48.115Z,11.20
2019-05-07T02:50:22.609Z,11.20
2019-05-07T02:52:59.220Z,11.10
2019-05-07T02:55:43.506Z,11.00
2019-05-07T02:58:13.924Z,11.00
2019-05-07T03:00:44.102Z,10.90
2019-05-07T03:03:14.151Z,10.70
2019-05-07T03:05:44.263Z,10.70
2019-05-07T03:08:14.341Z,10.70
2019-05-07T03:10:44.381Z,10.70
2019-05-07T03:13:14.488Z,10.60
2019-05-07T03:15:44.598Z,10.60
2019-05-07T03:18:18.844Z,10.70
2019-05-07T03:20:47.936Z,10.60
2019-05-07T03:23:22.899Z,10.60
2019-05-07T03:25:54.666Z,10.50
2019-05-07T03:28:26.091Z,10.40
2019-05-07T03:31:05.914Z,10.40
2019-05-07T03:33:47.220Z,10.40
2019-05-07T03:36:16.592Z,10.30
2019-05-07T03:38:47.156Z,10.30
2019-05-07T03:41:18.895Z,10.40
2019-05-07T03:43:49.038Z,10.40
2019-05-07T03:46:19.458Z,10.40
2019-05-07T03:48:49.469Z,10.40
2019-05-07T03:51:19.441Z,10.40
2019-05-07T03:53:49.424Z,10.30
2019-05-07T03:56:19.432Z,10.30
2019-05-07T03:58:52.672Z,10.30
2019-05-07T04:01:23.966Z,10.30
2019-05-07T04:03:53.385Z,10.20
2019-05-07T04:06:23.611Z,10.20
2019-05-07T04:08:54.450Z,10.10
2019-05-07T04:11:24.566Z,10.00
2019-05-07T04:13:54.494Z,10.00
2019-05-07T04:16:24.471Z,9.90
2019-05-07T04:18:54.538Z,9.80
2019-05-07T04:21:24.498Z,9.70
2019-05-07T04:23:56.131Z,9.60
2019-05-07T04:26:34.085Z,9.70
2019-05-07T04:29:06.765Z,9.80
2019-05-07T04:31:38.287Z,9.80
2019-05-07T04:34:26.201Z,9.80
2019-05-07T04:36:56.226Z,9.90
2019-05-07T04:39:26.274Z,9.90
2019-05-07T04:41:56.210Z,9.90
2019-05-07T04:44:26.326Z,9.90
2019-05-07T04:46:56.375Z,9.80
2019-05-07T04:49:27.380Z,9.90
2019-05-07T04:51:59.047Z,9.90
2019-05-07T04:54:29.055Z,10.00
2019-05-07T04:56:59.096Z,10.00
2019-05-07T04:59:29.122Z,10.00
2019-05-07T05:02:03.864Z,10.00
2019-05-07T05:04:34.986Z,9.90
2019-05-07T05:07:04.230Z,10.00
2019-05-07T05:09:34.260Z,10.00
2019-05-07T05:12:04.333Z,10.10
2019-05-07T05:14:34.463Z,10.10
2019-05-07T05:17:04.462Z,10.10
2019-05-07T05:19:35.551Z,10.10
2019-05-07T05:22:07.262Z,10.20
2019-05-07T05:24:39.002Z,10.30
2019-05-07T05:27:08.975Z,10.30
2019-05-07T05:29:39.477Z,10.30
2019-05-07T05:32:11.891Z,10.40
2019-05-07T05:34:42.621Z,10.50
2019-05-07T05:37:12.562Z,10.70
2019-05-07T05:39:42.825Z,10.80
2019-05-07T05:42:22.465Z,10.80
2019-05-07T05:44:52.484Z,10.90
2019-05-07T05:47:22.480Z,10.90
2019-05-07T05:49:53.391Z,11.00
2019-05-07T05:52:25.105Z,11.10
2019-05-07T05:54:56.731Z,11.20
2019-05-07T05:57:32.289Z,11.30
2019-05-07T06:00:12.454Z,11.40
2019-05-07T06:02:44.080Z,11.40
2019-05-07T06:05:34.531Z,11.50
2019-05-07T06:08:17.565Z,11.60
2019-05-07T06:10:51.957Z,11.60
2019-05-07T06:13:41.469Z,11.70
2019-05-07T06:16:18.958Z,11.80
2019-05-07T06:18:56.735Z,11.80
2019-05-07T06:21:44.659Z,11.90
2019-05-07T06:24:16.331Z,11.90
2019-05-07T06:26:46.471Z,12.00
2019-05-07T06:29:16.507Z,12.10
2019-05-07T06:31:48.196Z,12.30
2019-05-07T06:34:18.159Z,12.40
2019-05-07T06:36:48.095Z,12.50
2019-05-07T06:39:22.023Z,12.60
2019-05-07T06:42:08.783Z,12.60
2019-05-07T06:44:38.900Z,12.70
2019-05-07T06:47:09.011Z,12.80
2019-05-07T06:49:38.952Z,12.80
2019-05-07T06:52:12.262Z,12.80
2019-05-07T06:54:42.813Z,12.80
2019-05-07T06:57:13.901Z,12.80
2019-05-07T06:59:48.175Z,12.90
2019-05-07T07:02:37.790Z,12.90
2019-05-07T07:05:09.547Z,13.00
2019-05-07T07:07:49.739Z,13.00
2019-05-07T07:10:24.475Z,13.10
2019-05-07T07:12:54.628Z,13.10
2019-05-07T07:15:24.854Z,13.20
2019-05-07T07:17:54.891Z,13.20
2019-05-07T07:20:25.126Z,13.40
2019-05-07T07:22:55.272Z,13.40
2019-05-07T07:25:25.463Z,13.50
2019-05-07T07:27:55.468Z,13.60
2019-05-07T07:30:27.139Z,13.60
2019-05-07T07:32:58.866Z,13.60
2019-05-07T07:35:29.050Z,13.70
2019-05-07T07:37:59.086Z,13.70
2019-05-07T07:40:32.703Z,13.80
2019-05-07T07:43:06.361Z,13.80
2019-05-07T07:45:34.267Z,13.90
2019-05-07T07:48:04.392Z,13.90
2019-05-07T07:50:34.404Z,14.00
2019-05-07T07:53:05.446Z,14.10
2019-05-07T07:55:37.187Z,14.10
2019-05-07T07:58:08.839Z,14.20
2019-05-07T08:00:56.468Z,14.20
2019-05-07T08:03:26.407Z,14.20
2019-05-07T08:05:56.382Z,14.20
2019-05-07T08:08:26.463Z,14.20
2019-05-07T08:10:56.683Z,14.30
2019-05-07T08:13:26.767Z,14.30
2019-05-07T08:15:56.881Z,14.40
2019-05-07T08:18:26.995Z,14.40
2019-05-07T08:20:57.096Z,14.50
2019-05-07T08:23:27.167Z,14.50
2019-05-07T08:25:57.296Z,14.50
2019-05-07T08:28:27.366Z,14.60
2019-05-07T08:31:15.366Z,14.60
2019-05-07T08:33:46.945Z,14.70
2019-05-07T08:36:18.344Z,14.70
2019-05-07T08:38:53.290Z,14.60
2019-05-07T08:41:25.860Z,14.70
2019-05-07T08:44:11.223Z,14.70
2019-05-07T08:46:32.857Z,14.80
2019-05-07T08:49:02.959Z,14.70
2019-05-07T08:51:33.072Z,14.80
2019-05-07T08:54:06.223Z,14.80
2019-05-07T08:56:36.735Z,14.90
2019-05-07T08:59:07.883Z,14.90
2019-05-07T09:01:40.176Z,15.00
2019-05-07T09:04:10.254Z,15.00
2019-05-07T09:06:40.378Z,15.10
2019-05-07T09:09:13.071Z,15.20
2019-05-07T09:11:43.811Z,15.30
2019-05-07T09:14:15.088Z,15.50
2019-05-07T09:16:45.162Z,15.50
2019-05-07T09:19:15.291Z,15.40
2019-05-07T09:21:45.370Z,15.40
2019-05-07T09:24:15.595Z,15.50
2019-05-07T09:26:59.382Z,15.60
2019-05-07T09:29:33.442Z,15.70
2019-05-07T09:32:22.765Z,15.80
2019-05-07T09:34:57.011Z,15.90
2019-05-07T09:37:32.615Z,15.90
2019-05-07T09:40:03.153Z,15.90
2019-05-07T09:42:33.576Z,16.00
2019-05-07T09:45:05.059Z,16.00
2019-05-07T09:47:35.235Z,16.00
2019-05-07T09:50:08.770Z,16.00
2019-05-07T09:52:39.174Z,16.10
2019-05-07T09:55:14.865Z,16.10
2019-05-07T09:57:42.432Z,16.20
2019-05-07T10:00:13.784Z,16.30
2019-05-07T10:02:43.899Z,16.20
2019-05-07T10:05:14.411Z,16.20
2019-05-07T10:07:44.551Z,16.20
2019-05-07T10:10:15.914Z,16.30
2019-05-07T10:12:53.278Z,16.50
2019-05-07T10:15:23.283Z,16.50
2019-05-07T10:17:55.024Z,16.50
2019-05-07T10:20:25.234Z,16.60
2019-05-07T10:22:55.318Z,16.80
2019-05-07T10:25:27.127Z,16.80
2019-05-07T10:27:57.283Z,16.80
2019-05-07T10:30:27.391Z,16.80
2019-05-07T10:32:57.399Z,16.90
2019-05-07T10:35:27.502Z,16.90
2019-05-07T10:37:57.582Z,16.90
2019-05-07T10:40:28.660Z,16.90
2019-05-07T10:42:58.738Z,16.90
2019-05-07T10:45:47.426Z,17.10
2019-05-07T10:48:32.045Z,17.10
2019-05-07T10:51:02.983Z,17.10
2019-05-07T10:53:33.131Z,17.20
2019-05-07T10:56:03.247Z,17.20
2019-05-07T10:58:33.219Z,17.30
2019-05-07T11:01:03.347Z,17.20
2019-05-07T11:03:33.435Z,17.10
2019-05-07T11:06:03.622Z,17.10
2019-05-07T11:08:33.701Z,17.10
2019-05-07T11:11:04.805Z,17.10
2019-05-07T11:13:34.972Z,17.30
2019-05-07T11:16:11.630Z,17.40
2019-05-07T11:18:48.759Z,17.40
2019-05-07T11:21:22.156Z,17.40
2019-05-07T11:23:52.319Z,17.50
2019-05-07T11:26:22.398Z,17.60
2019-05-07T11:28:52.443Z,17.60
2019-05-07T11:31:22.550Z,17.70
2019-05-07T11:33:52.601Z,17.70
2019-05-07T11:36:22.711Z,17.70
2019-05-07T11:38:52.797Z,17.70
2019-05-07T11:41:24.458Z,17.60
2019-05-07T11:43:56.107Z,17.60
2019-05-07T11:46:27.850Z,17.60
2019-05-07T11:49:05.426Z,17.50
2019-05-07T11:51:39.778Z,17.50
2019-05-07T11:54:13.750Z,17.50
2019-05-07T11:56:43.937Z,17.50
2019-05-07T11:59:14.193Z,17.50
2019-05-07T12:01:49.058Z,17.40
2019-05-07T12:04:19.219Z,17.40
2019-05-07T12:06:49.438Z,17.40
2019-05-07T12:09:21.650Z,17.50
2019-05-07T12:11:52.082Z,17.50
2019-05-07T12:14:30.953Z,17.50
2019-05-07T12:16:53.947Z,17.50
2019-05-07T12:19:23.991Z,17.50
2019-05-07T12:21:54.135Z,17.50
2019-05-07T12:24:24.236Z,17.50
2019-05-07T12:26:54.564Z,17.60
2019-05-07T12:29:24.890Z,17.60
2019-05-07T12:31:57.679Z,17.60
2019-05-07T12:34:35.127Z,17.60
2019-05-07T12:37:06.955Z,17.90
2019-05-07T12:39:37.095Z,18.10
2019-05-07T12:42:07.195Z,18.20
2019-05-07T12:44:38.302Z,18.40
2019-05-07T12:47:08.448Z,18.30
2019-05-07T12:49:39.226Z,18.40
2019-05-07T12:52:13.723Z,18.60
2019-05-07T12:54:56.515Z,18.80
2019-05-07T12:57:26.431Z,19.10
2019-05-07T12:59:58.268Z,19.30
2019-05-07T13:02:38.142Z,19.20
2019-05-07T13:05:02.901Z,19.00
2019-05-07T13:07:34.825Z,18.80
2019-05-07T13:10:08.511Z,18.50
2019-05-07T13:12:38.204Z,18.70
2019-05-07T13:15:23.530Z,19.00
2019-05-07T13:17:41.719Z,19.30
2019-05-07T13:20:12.253Z,19.40
2019-05-07T13:22:42.766Z,19.90
2019-05-07T13:25:13.207Z,20.20
2019-05-07T13:27:44.336Z,20.40
2019-05-07T13:30:15.105Z,20.40
2019-05-07T13:32:48.232Z,20.60
2019-05-07T13:35:18.594Z,20.50
2019-05-07T13:37:50.440Z,20.10
2019-05-07T13:40:25.182Z,20.00
2019-05-07T13:43:14.955Z,19.80
2019-05-07T13:45:49.161Z,19.70
2019-05-07T13:48:22.504Z,19.30
2019-05-07T13:50:52.883Z,19.00
2019-05-07T13:53:23.239Z,18.70
2019-05-07T13:55:53.463Z,18.50
2019-05-07T13:58:24.088Z,18.50
2019-05-07T14:00:58.613Z,18.40
2019-05-07T14:03:29.097Z,18.40
2019-05-07T14:05:59.236Z,18.30
2019-05-07T14:08:32.036Z,18.30
2019-05-07T14:11:02.768Z,18.20
2019-05-07T14:13:33.877Z,18.30
2019-05-07T14:16:08.843Z,18.30
2019-05-07T14:18:39.765Z,18.30
2019-05-07T14:21:13.040Z,18.30
2019-05-07T14:23:43.438Z,18.20
2019-05-07T14:26:13.743Z,18.00
2019-05-07T14:28:43.879Z,18.00
2019-05-07T14:31:14.055Z,18.10
2019-05-07T14:33:53.979Z,18.10
2019-05-07T14:36:27.519Z,18.00
2019-05-07T14:38:57.641Z,18.00
2019-05-07T14:41:27.646Z,18.20
2019-05-07T14:44:05.338Z,18.20
2019-05-07T14:46:47.195Z,18.20
2019-05-07T14:49:07.359Z,18.30
2019-05-07T14:51:41.143Z,18.30
2019-05-07T14:54:12.355Z,18.30
2019-05-07T14:56:42.927Z,18.30
2019-05-07T14:59:13.078Z,18.40
2019-05-07T15:01:43.151Z,18.40
2019-05-07T15:04:13.298Z,18.30
2019-05-07T15:06:46.441Z,18.30
2019-05-07T15:09:15.332Z,18.30
2019-05-07T15:11:45.504Z,18.30
2019-05-07T15:14:15.621Z,18.20
2019-05-07T15:16:45.723Z,18.20
2019-05-07T15:19:15.984Z,18.20
2019-05-07T15:21:46.668Z,18.10
2019-05-07T15:24:16.910Z,18.00
2019-05-07T15:26:47.951Z,17.90
2019-05-07T15:29:18.022Z,18.00
2019-05-07T15:31:55.509Z,17.90
2019-05-07T15:34:26.279Z,17.90
2019-05-07T15:36:56.551Z,17.90
2019-05-07T15:39:27.308Z,17.90
2019-05-07T15:41:57.671Z,18.00
2019-05-07T15:44:27.815Z,18.10
2019-05-07T15:47:02.450Z,18.10
2019-05-07T15:49:32.767Z,18.10
2019-05-07T15:52:04.620Z,18.10
2019-05-07T15:54:34.811Z,18.10
2019-05-07T15:57:06.725Z,18.10
2019-05-07T15:59:36.989Z,18.00
2019-05-07T16:02:08.750Z,18.00
2019-05-07T16:04:38.875Z,18.00
2019-05-07T16:07:13.124Z,18.00
2019-05-07T16:09:45.692Z,18.00
2019-05-07T16:12:19.399Z,18.00
2019-05-07T16:14:49.545Z,18.00
2019-05-07T16:17:24.515Z,17.90
2019-05-07T16:19:55.202Z,17.90
2019-05-07T16:22:27.101Z,17.90
2019-05-07T16:24:57.268Z,17.90
2019-05-07T16:27:27.443Z,17.90
2019-05-07T16:29:57.475Z,17.90
2019-05-07T16:32:28.334Z,17.90
2019-05-07T16:34:58.435Z,17.90
2019-05-07T16:37:28.466Z,17.90
2019-05-07T16:39:58.569Z,17.90
2019-05-07T16:42:28.659Z,17.90
2019-05-07T16:44:58.693Z,17.80
2019-05-07T16:47:30.495Z,17.80
2019-05-07T16:50:03.970Z,17.80
2019-05-07T16:52:35.219Z,17.80
2019-05-07T16:55:06.199Z,17.80
2019-05-07T16:57:38.043Z,17.80
2019-05-07T17:00:11.311Z,17.70
2019-05-07T17:02:43.015Z,17.70
2019-05-07T17:05:16.247Z,17.70
2019-05-07T17:07:52.093Z,17.70
2019-05-07T17:10:23.380Z,17.70
2019-05-07T17:12:53.619Z,17.70
2019-05-07T17:15:24.107Z,17.60
2019-05-07T17:18:02.540Z,17.60
2019-05-07T17:20:32.791Z,17.60
2019-05-07T17:23:03.213Z,17.60
2019-05-07T17:25:39.748Z,17.60
2019-05-07T17:28:12.621Z,17.60
2019-05-07T17:30:42.747Z,17.60
2019-05-07T17:33:13.028Z,17.50
2019-05-07T17:35:43.964Z,17.60
2019-05-07T17:38:14.855Z,17.50
2019-05-07T17:40:45.118Z,17.50
2019-05-07T17:43:15.195Z,17.50
2019-05-07T17:45:46.711Z,17.50
2019-05-07T17:48:17.236Z,17.50
2019-05-07T17:50:49.082Z,17.50
2019-05-07T17:53:19.276Z,17.50
2019-05-07T17:55:49.311Z,17.50
2019-05-07T17:58:19.485Z,17.50
2019-05-07T18:00:52.876Z,17.40
2019-05-07T18:03:35.969Z,17.30
2019-05-07T18:06:06.442Z,17.10
2019-05-07T18:08:36.665Z,17.00
2019-05-07T18:11:20.139Z,16.90
2019-05-07T18:13:38.885Z,16.90
2019-05-07T18:16:12.127Z,16.80
2019-05-07T18:18:43.234Z,16.70
2019-05-07T18:21:13.507Z,16.60
2019-05-07T18:23:43.693Z,16.60
2019-05-07T18:26:27.119Z,16.50
2019-05-07T18:28:45.599Z,16.40
2019-05-07T18:31:15.979Z,16.40
2019-05-07T18:33:48.699Z,16.30
2019-05-07T18:36:18.899Z,16.30
2019-05-07T18:38:48.967Z,16.20
2019-05-07T18:41:19.155Z,16.10
2019-05-07T18:43:52.048Z,16.10
2019-05-07T18:46:22.149Z,16.00
2019-05-07T18:48:52.480Z,16.00
2019-05-07T18:51:22.551Z,16.00
2019-05-07T18:53:52.608Z,15.90
2019-05-07T18:56:22.656Z,15.90
2019-05-07T18:58:52.723Z,15.80
2019-05-07T19:01:24.538Z,15.80
2019-05-07T19:03:55.147Z,15.80
2019-05-07T19:06:25.405Z,15.80
2019-05-07T19:08:55.368Z,15.70
2019-05-07T19:11:25.550Z,15.70
2019-05-07T19:13:56.174Z,15.70
2019-05-07T19:16:26.376Z,15.60
2019-05-07T19:18:56.439Z,15.60
2019-05-07T19:21:26.612Z,15.60
2019-05-07T19:23:56.715Z,15.50
2019-05-07T19:26:26.852Z,15.50
2019-05-07T19:28:57.028Z,15.50
2019-05-07T19:31:27.235Z,15.40
2019-05-07T19:33:57.508Z,15.40
2019-05-07T19:36:27.736Z,15.30
2019-05-07T19:38:58.291Z,15.20
2019-05-07T19:41:28.640Z,15.20
2019-05-07T19:43:58.623Z,15.20
2019-05-07T19:46:28.723Z,15.20
2019-05-07T19:48:58.790Z,15.20
2019-05-07T19:51:28.975Z,15.20
2019-05-07T19:53:59.115Z,15.10
2019-05-07T19:56:29.216Z,15.10
2019-05-07T19:58:59.424Z,15.10
2019-05-07T20:01:32.361Z,15.00
2019-05-07T20:04:02.680Z,15.00
2019-05-07T20:06:32.877Z,15.00
2019-05-07T20:09:12.073Z,14.90
2019-05-07T20:11:37.327Z,14.90
2019-05-07T20:14:08.479Z,14.90
2019-05-07T20:16:38.681Z,14.80
2019-05-07T20:19:09.004Z,14.90
2019-05-07T20:21:39.276Z,14.90
2019-05-07T20:24:09.508Z,14.80
2019-05-07T20:26:39.721Z,14.70
2019-05-07T20:29:12.169Z,14.70
2019-05-07T20:31:42.258Z,14.70
2019-05-07T20:34:13.186Z,14.70
2019-05-07T20:36:43.404Z,14.60
2019-05-07T20:39:14.146Z,14.60
2019-05-07T20:41:44.388Z,14.60
2019-05-07T20:44:14.627Z,14.60
2019-05-07T20:46:44.712Z,14.50
2019-05-07T20:49:14.820Z,14.50
2019-05-07T20:51:44.927Z,14.40
2019-05-07T20:54:25.175Z,14.40
2019-05-07T20:57:02.851Z,14.40
2019-05-07T20:59:33.139Z,14.30
2019-05-07T21:02:03.388Z,14.30
2019-05-07T21:04:33.525Z,14.30
2019-05-07T21:07:03.696Z,14.30
2019-05-07T21:09:33.785Z,14.30
2019-05-07T21:12:04.002Z,14.20
2019-05-07T21:14:34.964Z,14.20
2019-05-07T21:17:05.135Z,14.20
2019-05-07T21:19:35.204Z,14.20
2019-05-07T21:22:05.464Z,14.20
2019-05-07T21:24:35.751Z,14.10
2019-05-07T21:27:05.883Z,14.10
2019-05-07T21:29:35.911Z,14.10
2019-05-07T21:32:05.980Z,14.10
2019-05-07T21:34:36.076Z,14.10
2019-05-07T21:37:08.502Z,14.10
2019-05-07T21:39:37.934Z,14.10
2019-05-07T21:42:08.103Z,14.10
2019-05-07T21:44:38.211Z,14.10
2019-05-07T21:47:08.274Z,14.00
2019-05-07T21:49:38.324Z,14.00
2019-05-07T21:52:08.431Z,13.90
2019-05-07T21:54:43.479Z,13.90
2019-05-07T21:57:32.998Z,13.90
2019-05-07T22:00:12.493Z,13.90
2019-05-07T22:02:44.012Z,13.90
2019-05-07T22:05:15.431Z,13.80
2019-05-07T22:07:46.588Z,13.80
2019-05-07T22:10:16.735Z,13.80
2019-05-07T22:12:46.975Z,13.80
2019-05-07T22:15:17.147Z,13.80
2019-05-07T22:17:47.351Z,13.80
2019-05-07T22:20:17.456Z,13.70
2019-05-07T22:22:47.599Z,13.70
2019-05-07T22:25:17.767Z,13.70
2019-05-07T22:27:49.463Z,13.60
2019-05-07T22:30:32.396Z,13.60
2019-05-07T22:33:03.659Z,13.60
2019-05-07T22:35:38.157Z,13.60
2019-05-07T22:38:27.811Z,13.60
2019-05-07T22:40:59.415Z,13.60
2019-05-07T22:43:31.799Z,13.60
2019-05-07T22:46:01.603Z,13.50
2019-05-07T22:48:32.462Z,13.50
2019-05-07T22:51:02.809Z,13.40
2019-05-07T22:53:33.058Z,13.40
2019-05-07T22:56:03.292Z,13.40
2019-05-07T22:58:38.992Z,13.40
2019-05-07T23:01:12.932Z,13.30
2019-05-07T23:03:42.977Z,13.30
2019-05-07T23:06:13.255Z,13.30
2019-05-07T23:08:43.388Z,13.30
2019-05-07T23:11:13.557Z,13.30
2019-05-07T23:13:43.695Z,13.40
2019-05-07T23:16:13.729Z,13.40
2019-05-07T23:18:43.726Z,13.40
2019-05-07T23:21:14.993Z,13.30
2019-05-07T23:23:44.987Z,13.30
2019-05-07T23:26:15.063Z,13.30
2019-05-07T23:28:45.094Z,13.30
2019-05-07T23:31:16.130Z,13.30
2019-05-07T23:33:46.247Z,13.30
2019-05-07T23:36:16.374Z,13.30
2019-05-07T23:38:46.547Z,13.30
2019-05-07T23:41:33.351Z,13.30
2019-05-07T23:44:14.080Z,13.30
2019-05-07T23:46:44.960Z,13.30
2019-05-07T23:49:15.399Z,13.20
2019-05-07T23:51:45.543Z,13.20
2019-05-07T23:54:15.731Z,13.20
2019-05-07T23:56:45.802Z,13.10
2019-05-07T23:59:15.943Z,13.10
